sensor_id;sensor_type;location;lat;lon;timestamp;P1;durP1;ratioP1;P2;durP2;ratioP2
18090;SDS011;9172;49.948;9.208;2023-04-03T00:01:34;4.83;;;2.67;;
18090;SDS011;9172;49.948;9.208;2023-04-03T00:04:04;2.97;;;2.30;;
18090;SDS011;9172;49.948;9.208;2023-04-03T00:06:33;3.73;;;1.87;;
18090;SDS011;9172;49.948;9.208;2023-04-03T00:09:02;4.23;;;2.57;;
18090;SDS011;9172;49.948;9.208;2023-04-03T00:11:30;5.83;;;2.17;;
18090;SDS011;9172;49.948;9.208;2023-04-03T00:13:59;4.63;;;2.17;;
18090;SDS011;9172;49.948;9.208;2023-04-03T00:16:27;3.23;;;2.57;;
18090;SDS011;9172;49.948;9.208;2023-04-03T00:18:56;4.77;;;2.17;;
18090;SDS011;9172;49.948;9.208;2023-04-03T00:21:25;3.63;;;2.37;;
18090;SDS011;9172;49.948;9.208;2023-04-03T00:23:53;3.57;;;2.00;;
18090;SDS011;9172;49.948;9.208;2023-04-03T00:26:23;6.67;;;1.90;;
18090;SDS011;9172;49.948;9.208;2023-04-03T00:28:52;4.63;;;2.03;;
18090;SDS011;9172;49.948;9.208;2023-04-03T00:31:21;3.40;;;2.10;;
18090;SDS011;9172;49.948;9.208;2023-04-03T00:33:49;2.33;;;2.03;;
18090;SDS011;9172;49.948;9.208;2023-04-03T00:36:18;3.30;;;2.30;;
18090;SDS011;9172;49.948;9.208;2023-04-03T00:38:48;3.97;;;2.40;;
18090;SDS011;9172;49.948;9.208;2023-04-03T00:41:16;3.80;;;2.23;;
18090;SDS011;9172;49.948;9.208;2023-04-03T00:43:46;2.83;;;2.00;;
18090;SDS011;9172;49.948;9.208;2023-04-03T00:46:14;4.30;;;2.17;;
18090;SDS011;9172;49.948;9.208;2023-04-03T00:48:44;4.60;;;2.20;;
18090;SDS011;9172;49.948;9.208;2023-04-03T00:51:16;4.57;;;2.50;;
18090;SDS011;9172;49.948;9.208;2023-04-03T00:53:47;3.90;;;2.20;;
18090;SDS011;9172;49.948;9.208;2023-04-03T00:56:18;6.30;;;2.33;;
18090;SDS011;9172;49.948;9.208;2023-04-03T00:58:50;3.70;;;2.07;;
18090;SDS011;9172;49.948;9.208;2023-04-03T01:01:21;3.43;;;1.83;;
18090;SDS011;9172;49.948;9.208;2023-04-03T01:03:52;3.63;;;2.00;;
18090;SDS011;9172;49.948;9.208;2023-04-03T01:06:23;2.70;;;2.17;;
18090;SDS011;9172;49.948;9.208;2023-04-03T01:08:53;3.93;;;1.63;;
18090;SDS011;9172;49.948;9.208;2023-04-03T01:11:23;9.27;;;2.20;;
18090;SDS011;9172;49.948;9.208;2023-04-03T01:13:53;3.87;;;2.30;;
18090;SDS011;9172;49.948;9.208;2023-04-03T01:16:22;3.73;;;2.03;;
18090;SDS011;9172;49.948;9.208;2023-04-03T01:18:53;2.30;;;1.87;;
18090;SDS011;9172;49.948;9.208;2023-04-03T01:24:41;4.17;;;2.40;;
18090;SDS011;9172;49.948;9.208;2023-04-03T01:27:12;4.67;;;1.90;;
18090;SDS011;9172;49.948;9.208;2023-04-03T01:29:41;4.57;;;2.03;;
18090;SDS011;9172;49.948;9.208;2023-04-03T01:32:11;2.80;;;1.90;;
18090;SDS011;9172;49.948;9.208;2023-04-03T01:34:39;2.10;;;1.90;;
18090;SDS011;9172;49.948;9.208;2023-04-03T01:37:10;2.90;;;2.00;;
18090;SDS011;9172;49.948;9.208;2023-04-03T01:39:39;3.63;;;2.10;;
18090;SDS011;9172;49.948;9.208;2023-04-03T01:42:08;4.47;;;2.20;;
18090;SDS011;9172;49.948;9.208;2023-04-03T01:44:37;3.53;;;2.07;;
18090;SDS011;9172;49.948;9.208;2023-04-03T01:47:06;3.07;;;2.40;;
18090;SDS011;9172;49.948;9.208;2023-04-03T01:49:35;6.63;;;2.47;;
18090;SDS011;9172;49.948;9.208;2023-04-03T01:52:03;2.80;;;2.10;;
18090;SDS011;9172;49.948;9.208;2023-04-03T01:54:33;2.50;;;2.03;;
18090;SDS011;9172;49.948;9.208;2023-04-03T01:57:01;3.73;;;2.03;;
18090;SDS011;9172;49.948;9.208;2023-04-03T01:59:31;18.00;;;2.23;;
18090;SDS011;9172;49.948;9.208;2023-04-03T02:02:02;2.50;;;2.17;;
18090;SDS011;9172;49.948;9.208;2023-04-03T02:04:31;4.73;;;2.47;;
18090;SDS011;9172;49.948;9.208;2023-04-03T02:07:01;2.77;;;2.00;;
18090;SDS011;9172;49.948;9.208;2023-04-03T02:09:31;5.70;;;2.00;;
18090;SDS011;9172;49.948;9.208;2023-04-03T02:12:00;2.67;;;2.13;;
18090;SDS011;9172;49.948;9.208;2023-04-03T02:14:28;6.50;;;2.00;;
18090;SDS011;9172;49.948;9.208;2023-04-03T02:16:57;2.57;;;1.80;;
18090;SDS011;9172;49.948;9.208;2023-04-03T02:19:29;4.77;;;2.37;;
18090;SDS011;9172;49.948;9.208;2023-04-03T02:21:58;6.80;;;2.00;;
18090;SDS011;9172;49.948;9.208;2023-04-03T02:24:27;5.00;;;2.13;;
18090;SDS011;9172;49.948;9.208;2023-04-03T02:26:56;3.17;;;2.17;;
18090;SDS011;9172;49.948;9.208;2023-04-03T02:29:25;5.93;;;2.20;;
18090;SDS011;9172;49.948;9.208;2023-04-03T02:31:54;4.90;;;2.10;;
18090;SDS011;9172;49.948;9.208;2023-04-03T02:34:24;4.07;;;2.17;;
18090;SDS011;9172;49.948;9.208;2023-04-03T02:36:54;2.63;;;2.00;;
18090;SDS011;9172;49.948;9.208;2023-04-03T02:39:23;3.80;;;2.27;;
18090;SDS011;9172;49.948;9.208;2023-04-03T02:41:53;3.67;;;2.30;;
18090;SDS011;9172;49.948;9.208;2023-04-03T02:44:21;3.00;;;2.20;;
18090;SDS011;9172;49.948;9.208;2023-04-03T02:46:50;3.90;;;2.20;;
18090;SDS011;9172;49.948;9.208;2023-04-03T02:49:19;2.87;;;2.20;;
18090;SDS011;9172;49.948;9.208;2023-04-03T02:51:49;5.47;;;2.20;;
18090;SDS011;9172;49.948;9.208;2023-04-03T02:54:18;4.57;;;2.00;;
18090;SDS011;9172;49.948;9.208;2023-04-03T02:56:49;6.93;;;2.57;;
18090;SDS011;9172;49.948;9.208;2023-04-03T02:59:18;2.77;;;2.23;;
18090;SDS011;9172;49.948;9.208;2023-04-03T03:01:47;3.33;;;1.90;;
18090;SDS011;9172;49.948;9.208;2023-04-03T03:04:17;3.23;;;2.40;;
18090;SDS011;9172;49.948;9.208;2023-04-03T03:06:47;3.47;;;2.33;;
18090;SDS011;9172;49.948;9.208;2023-04-03T03:09:17;2.80;;;2.13;;
18090;SDS011;9172;49.948;9.208;2023-04-03T03:11:46;5.10;;;2.30;;
18090;SDS011;9172;49.948;9.208;2023-04-03T03:14:14;3.93;;;2.13;;
18090;SDS011;9172;49.948;9.208;2023-04-03T03:16:43;4.03;;;2.10;;
18090;SDS011;9172;49.948;9.208;2023-04-03T03:19:11;5.57;;;2.10;;
18090;SDS011;9172;49.948;9.208;2023-04-03T03:21:41;3.27;;;2.00;;
18090;SDS011;9172;49.948;9.208;2023-04-03T03:24:09;1.90;;;1.73;;
18090;SDS011;9172;49.948;9.208;2023-04-03T03:26:39;3.80;;;2.07;;
18090;SDS011;9172;49.948;9.208;2023-04-03T03:29:07;2.67;;;1.60;;
18090;SDS011;9172;49.948;9.208;2023-04-03T03:31:37;2.50;;;1.77;;
18090;SDS011;9172;49.948;9.208;2023-04-03T03:34:05;2.50;;;1.77;;
18090;SDS011;9172;49.948;9.208;2023-04-03T03:36:34;2.23;;;1.70;;
18090;SDS011;9172;49.948;9.208;2023-04-03T03:39:03;3.80;;;2.13;;
18090;SDS011;9172;49.948;9.208;2023-04-03T03:41:32;2.30;;;1.73;;
18090;SDS011;9172;49.948;9.208;2023-04-03T03:44:01;4.57;;;2.40;;
18090;SDS011;9172;49.948;9.208;2023-04-03T03:46:31;4.00;;;1.80;;
18090;SDS011;9172;49.948;9.208;2023-04-03T03:49:01;4.07;;;2.10;;
18090;SDS011;9172;49.948;9.208;2023-04-03T03:51:29;2.57;;;2.00;;
18090;SDS011;9172;49.948;9.208;2023-04-03T03:53:59;2.37;;;2.17;;
18090;SDS011;9172;49.948;9.208;2023-04-03T03:56:28;3.93;;;2.10;;
18090;SDS011;9172;49.948;9.208;2023-04-03T03:58:56;2.47;;;2.00;;
18090;SDS011;9172;49.948;9.208;2023-04-03T04:01:25;4.53;;;2.37;;
18090;SDS011;9172;49.948;9.208;2023-04-03T04:03:56;2.57;;;2.00;;
18090;SDS011;9172;49.948;9.208;2023-04-03T04:06:34;12.47;;;2.80;;
18090;SDS011;9172;49.948;9.208;2023-04-03T04:09:03;3.97;;;2.30;;
18090;SDS011;9172;49.948;9.208;2023-04-03T04:11:33;4.00;;;2.40;;
18090;SDS011;9172;49.948;9.208;2023-04-03T04:14:02;2.97;;;2.20;;
18090;SDS011;9172;49.948;9.208;2023-04-03T04:16:31;4.57;;;2.30;;
18090;SDS011;9172;49.948;9.208;2023-04-03T04:19:01;3.73;;;2.23;;
18090;SDS011;9172;49.948;9.208;2023-04-03T04:21:30;6.27;;;2.30;;
18090;SDS011;9172;49.948;9.208;2023-04-03T04:23:59;5.60;;;1.97;;
18090;SDS011;9172;49.948;9.208;2023-04-03T04:26:28;4.17;;;2.30;;
18090;SDS011;9172;49.948;9.208;2023-04-03T04:28:57;2.87;;;1.87;;
18090;SDS011;9172;49.948;9.208;2023-04-03T04:31:26;5.03;;;1.93;;
18090;SDS011;9172;49.948;9.208;2023-04-03T04:33:54;3.10;;;2.13;;
18090;SDS011;9172;49.948;9.208;2023-04-03T04:36:23;5.77;;;2.03;;
18090;SDS011;9172;49.948;9.208;2023-04-03T04:38:52;2.67;;;1.90;;
18090;SDS011;9172;49.948;9.208;2023-04-03T04:41:21;6.77;;;2.20;;
18090;SDS011;9172;49.948;9.208;2023-04-03T04:43:49;9.63;;;1.90;;
18090;SDS011;9172;49.948;9.208;2023-04-03T04:46:19;3.83;;;2.10;;
18090;SDS011;9172;49.948;9.208;2023-04-03T04:48:48;4.53;;;1.77;;
18090;SDS011;9172;49.948;9.208;2023-04-03T04:51:16;4.93;;;1.80;;
18090;SDS011;9172;49.948;9.208;2023-04-03T04:53:45;3.17;;;1.77;;
18090;SDS011;9172;49.948;9.208;2023-04-03T04:56:15;2.67;;;1.60;;
18090;SDS011;9172;49.948;9.208;2023-04-03T04:58:44;2.27;;;1.80;;
18090;SDS011;9172;49.948;9.208;2023-04-03T05:01:13;2.40;;;1.77;;
18090;SDS011;9172;49.948;9.208;2023-04-03T05:03:42;3.77;;;1.97;;
18090;SDS011;9172;49.948;9.208;2023-04-03T05:06:11;6.80;;;1.93;;
18090;SDS011;9172;49.948;9.208;2023-04-03T05:08:40;3.93;;;2.03;;
18090;SDS011;9172;49.948;9.208;2023-04-03T05:11:08;4.40;;;1.60;;
18090;SDS011;9172;49.948;9.208;2023-04-03T05:13:37;4.20;;;1.83;;
18090;SDS011;9172;49.948;9.208;2023-04-03T05:16:06;6.27;;;2.20;;
18090;SDS011;9172;49.948;9.208;2023-04-03T05:18:35;2.77;;;1.87;;
18090;SDS011;9172;49.948;9.208;2023-04-03T05:21:04;4.50;;;1.73;;
18090;SDS011;9172;49.948;9.208;2023-04-03T05:23:33;3.43;;;1.90;;
18090;SDS011;9172;49.948;9.208;2023-04-03T05:26:02;3.60;;;2.03;;
18090;SDS011;9172;49.948;9.208;2023-04-03T05:28:31;6.93;;;1.70;;
18090;SDS011;9172;49.948;9.208;2023-04-03T05:31:01;2.63;;;1.43;;
18090;SDS011;9172;49.948;9.208;2023-04-03T05:33:34;3.73;;;1.80;;
18090;SDS011;9172;49.948;9.208;2023-04-03T05:36:03;2.37;;;1.50;;
18090;SDS011;9172;49.948;9.208;2023-04-03T05:38:32;3.90;;;1.93;;
18090;SDS011;9172;49.948;9.208;2023-04-03T05:41:01;3.77;;;1.77;;
18090;SDS011;9172;49.948;9.208;2023-04-03T05:43:30;3.43;;;1.90;;
18090;SDS011;9172;49.948;9.208;2023-04-03T05:46:00;4.97;;;2.07;;
18090;SDS011;9172;49.948;9.208;2023-04-03T05:48:29;6.53;;;2.30;;
18090;SDS011;9172;49.948;9.208;2023-04-03T05:50:58;3.33;;;1.57;;
18090;SDS011;9172;49.948;9.208;2023-04-03T05:53:27;4.00;;;1.73;;
18090;SDS011;9172;49.948;9.208;2023-04-03T05:55:59;1.80;;;1.50;;
18090;SDS011;9172;49.948;9.208;2023-04-03T05:58:28;4.80;;;1.77;;
18090;SDS011;9172;49.948;9.208;2023-04-03T06:00:59;2.57;;;1.77;;
18090;SDS011;9172;49.948;9.208;2023-04-03T06:03:28;4.90;;;2.17;;
18090;SDS011;9172;49.948;9.208;2023-04-03T06:05:57;7.67;;;1.90;;
18090;SDS011;9172;49.948;9.208;2023-04-03T06:08:29;4.20;;;2.50;;
18090;SDS011;9172;49.948;9.208;2023-04-03T06:10:58;5.03;;;1.90;;
18090;SDS011;9172;49.948;9.208;2023-04-03T06:13:29;2.17;;;1.70;;
18090;SDS011;9172;49.948;9.208;2023-04-03T06:15:58;4.20;;;1.50;;
18090;SDS011;9172;49.948;9.208;2023-04-03T06:18:28;4.33;;;1.90;;
18090;SDS011;9172;49.948;9.208;2023-04-03T06:20:58;5.57;;;2.27;;
18090;SDS011;9172;49.948;9.208;2023-04-03T06:23:28;3.03;;;1.67;;
18090;SDS011;9172;49.948;9.208;2023-04-03T06:25:58;7.43;;;2.10;;
18090;SDS011;9172;49.948;9.208;2023-04-03T06:28:28;3.20;;;1.70;;
18090;SDS011;9172;49.948;9.208;2023-04-03T06:30:57;5.77;;;1.47;;
18090;SDS011;9172;49.948;9.208;2023-04-03T06:33:27;3.40;;;1.60;;
18090;SDS011;9172;49.948;9.208;2023-04-03T06:35:56;1.70;;;1.30;;
18090;SDS011;9172;49.948;9.208;2023-04-03T06:38:26;2.37;;;1.50;;
18090;SDS011;9172;49.948;9.208;2023-04-03T06:40:54;2.60;;;1.20;;
18090;SDS011;9172;49.948;9.208;2023-04-03T06:43:23;5.83;;;2.10;;
18090;SDS011;9172;49.948;9.208;2023-04-03T06:45:53;4.50;;;2.03;;
18090;SDS011;9172;49.948;9.208;2023-04-03T06:48:21;2.67;;;1.40;;
18090;SDS011;9172;49.948;9.208;2023-04-03T06:50:51;5.70;;;1.70;;
18090;SDS011;9172;49.948;9.208;2023-04-03T06:53:21;3.97;;;1.53;;
18090;SDS011;9172;49.948;9.208;2023-04-03T06:55:50;4.53;;;1.90;;
18090;SDS011;9172;49.948;9.208;2023-04-03T06:58:20;5.27;;;1.67;;
18090;SDS011;9172;49.948;9.208;2023-04-03T07:00:50;4.87;;;1.60;;
18090;SDS011;9172;49.948;9.208;2023-04-03T07:03:18;2.90;;;1.40;;
18090;SDS011;9172;49.948;9.208;2023-04-03T07:05:47;2.63;;;1.50;;
18090;SDS011;9172;49.948;9.208;2023-04-03T07:08:16;4.00;;;1.70;;
18090;SDS011;9172;49.948;9.208;2023-04-03T07:10:45;4.80;;;1.30;;
18090;SDS011;9172;49.948;9.208;2023-04-03T07:13:15;6.43;;;1.47;;
18090;SDS011;9172;49.948;9.208;2023-04-03T07:15:43;4.70;;;1.60;;
18090;SDS011;9172;49.948;9.208;2023-04-03T07:18:13;3.83;;;1.37;;
18090;SDS011;9172;49.948;9.208;2023-04-03T07:20:43;3.10;;;1.60;;
18090;SDS011;9172;49.948;9.208;2023-04-03T07:23:12;3.70;;;1.50;;
18090;SDS011;9172;49.948;9.208;2023-04-03T07:25:42;3.20;;;1.37;;
18090;SDS011;9172;49.948;9.208;2023-04-03T07:28:11;4.70;;;1.80;;
18090;SDS011;9172;49.948;9.208;2023-04-03T07:30:43;6.17;;;1.57;;
18090;SDS011;9172;49.948;9.208;2023-04-03T07:33:13;3.60;;;1.17;;
18090;SDS011;9172;49.948;9.208;2023-04-03T07:35:43;3.17;;;1.30;;
18090;SDS011;9172;49.948;9.208;2023-04-03T07:38:13;2.00;;;1.47;;
18090;SDS011;9172;49.948;9.208;2023-04-03T07:40:45;4.73;;;1.50;;
18090;SDS011;9172;49.948;9.208;2023-04-03T07:43:17;3.67;;;1.50;;
18090;SDS011;9172;49.948;9.208;2023-04-03T07:45:46;5.57;;;1.33;;
18090;SDS011;9172;49.948;9.208;2023-04-03T07:48:17;3.23;;;1.57;;
18090;SDS011;9172;49.948;9.208;2023-04-03T07:50:47;3.07;;;1.53;;
18090;SDS011;9172;49.948;9.208;2023-04-03T07:53:17;1.67;;;1.10;;
18090;SDS011;9172;49.948;9.208;2023-04-03T07:55:46;1.13;;;1.00;;
18090;SDS011;9172;49.948;9.208;2023-04-03T07:58:17;4.80;;;1.30;;
18090;SDS011;9172;49.948;9.208;2023-04-03T08:00:46;4.07;;;1.47;;
18090;SDS011;9172;49.948;9.208;2023-04-03T08:03:17;2.37;;;1.20;;
18090;SDS011;9172;49.948;9.208;2023-04-03T08:05:46;5.00;;;1.47;;
18090;SDS011;9172;49.948;9.208;2023-04-03T08:08:18;5.33;;;1.70;;
18090;SDS011;9172;49.948;9.208;2023-04-03T08:10:49;4.17;;;1.37;;
18090;SDS011;9172;49.948;9.208;2023-04-03T08:13:19;2.13;;;1.20;;
18090;SDS011;9172;49.948;9.208;2023-04-03T08:15:49;2.73;;;1.20;;
18090;SDS011;9172;49.948;9.208;2023-04-03T08:18:19;2.80;;;1.30;;
18090;SDS011;9172;49.948;9.208;2023-04-03T08:20:49;3.60;;;1.27;;
18090;SDS011;9172;49.948;9.208;2023-04-03T08:23:18;1.80;;;1.00;;
18090;SDS011;9172;49.948;9.208;2023-04-03T08:25:47;3.73;;;1.23;;
18090;SDS011;9172;49.948;9.208;2023-04-03T08:28:17;2.87;;;1.17;;
18090;SDS011;9172;49.948;9.208;2023-04-03T08:30:46;2.17;;;1.00;;
18090;SDS011;9172;49.948;9.208;2023-04-03T08:33:17;6.83;;;1.30;;
18090;SDS011;9172;49.948;9.208;2023-04-03T08:35:46;2.90;;;1.40;;
18090;SDS011;9172;49.948;9.208;2023-04-03T08:38:16;4.23;;;1.50;;
18090;SDS011;9172;49.948;9.208;2023-04-03T08:40:45;2.33;;;1.23;;
18090;SDS011;9172;49.948;9.208;2023-04-03T08:43:20;4.33;;;1.20;;
18090;SDS011;9172;49.948;9.208;2023-04-03T08:46:00;5.70;;;1.23;;
18090;SDS011;9172;49.948;9.208;2023-04-03T08:51:10;2.20;;;1.10;;
18090;SDS011;9172;49.948;9.208;2023-04-03T08:53:50;2.47;;;1.00;;
18090;SDS011;9172;49.948;9.208;2023-04-03T08:56:21;2.97;;;1.37;;
18090;SDS011;9172;49.948;9.208;2023-04-03T08:58:55;4.57;;;1.30;;
18090;SDS011;9172;49.948;9.208;2023-04-03T09:01:33;7.20;;;1.43;;
18090;SDS011;9172;49.948;9.208;2023-04-03T09:04:09;1.97;;;1.10;;
18090;SDS011;9172;49.948;9.208;2023-04-03T09:06:38;4.80;;;1.50;;
18090;SDS011;9172;49.948;9.208;2023-04-03T09:11:50;2.10;;;1.20;;
18090;SDS011;9172;49.948;9.208;2023-04-03T09:14:21;3.57;;;1.13;;
18090;SDS011;9172;49.948;9.208;2023-04-03T09:16:53;3.10;;;1.20;;
18090;SDS011;9172;49.948;9.208;2023-04-03T09:19:26;1.87;;;1.00;;
18090;SDS011;9172;49.948;9.208;2023-04-03T09:21:57;1.77;;;0.90;;
18090;SDS011;9172;49.948;9.208;2023-04-03T09:24:28;3.40;;;0.93;;
18090;SDS011;9172;49.948;9.208;2023-04-03T09:27:00;2.77;;;1.33;;
18090;SDS011;9172;49.948;9.208;2023-04-03T09:29:30;2.50;;;1.10;;
18090;SDS011;9172;49.948;9.208;2023-04-03T09:32:02;3.43;;;1.17;;
18090;SDS011;9172;49.948;9.208;2023-04-03T09:34:35;3.47;;;1.27;;
18090;SDS011;9172;49.948;9.208;2023-04-03T09:37:05;2.37;;;1.40;;
18090;SDS011;9172;49.948;9.208;2023-04-03T09:39:48;1.77;;;1.20;;
18090;SDS011;9172;49.948;9.208;2023-04-03T09:42:20;2.37;;;1.20;;
18090;SDS011;9172;49.948;9.208;2023-04-03T09:44:53;1.70;;;1.00;;
18090;SDS011;9172;49.948;9.208;2023-04-03T09:47:24;7.17;;;1.53;;
18090;SDS011;9172;49.948;9.208;2023-04-03T09:50:08;6.20;;;1.53;;
18090;SDS011;9172;49.948;9.208;2023-04-03T09:52:39;3.67;;;1.20;;
18090;SDS011;9172;49.948;9.208;2023-04-03T09:55:13;2.60;;;1.33;;
18090;SDS011;9172;49.948;9.208;2023-04-03T09:57:44;2.77;;;1.50;;
18090;SDS011;9172;49.948;9.208;2023-04-03T10:00:20;6.10;;;1.40;;
18090;SDS011;9172;49.948;9.208;2023-04-03T10:02:51;1.60;;;1.20;;
18090;SDS011;9172;49.948;9.208;2023-04-03T10:05:27;3.70;;;1.33;;
18090;SDS011;9172;49.948;9.208;2023-04-03T10:08:20;4.00;;;1.47;;
18090;SDS011;9172;49.948;9.208;2023-04-03T10:11:08;2.53;;;1.30;;
18090;SDS011;9172;49.948;9.208;2023-04-03T10:13:55;2.53;;;1.17;;
18090;SDS011;9172;49.948;9.208;2023-04-03T10:16:27;2.93;;;1.10;;
18090;SDS011;9172;49.948;9.208;2023-04-03T10:19:02;1.30;;;1.10;;
18090;SDS011;9172;49.948;9.208;2023-04-03T10:21:37;2.07;;;1.23;;
18090;SDS011;9172;49.948;9.208;2023-04-03T10:24:10;2.40;;;1.03;;
18090;SDS011;9172;49.948;9.208;2023-04-03T10:26:44;4.57;;;1.30;;
18090;SDS011;9172;49.948;9.208;2023-04-03T10:29:18;3.90;;;1.20;;
18090;SDS011;9172;49.948;9.208;2023-04-03T10:31:58;4.53;;;1.10;;
18090;SDS011;9172;49.948;9.208;2023-04-03T10:34:29;4.80;;;1.40;;
18090;SDS011;9172;49.948;9.208;2023-04-03T10:37:02;2.17;;;1.20;;
18090;SDS011;9172;49.948;9.208;2023-04-03T10:39:36;3.87;;;1.47;;
18090;SDS011;9172;49.948;9.208;2023-04-03T10:42:08;2.30;;;1.40;;
18090;SDS011;9172;49.948;9.208;2023-04-03T10:44:41;6.97;;;1.40;;
18090;SDS011;9172;49.948;9.208;2023-04-03T10:47:16;5.20;;;1.30;;
18090;SDS011;9172;49.948;9.208;2023-04-03T10:49:50;4.90;;;1.47;;
18090;SDS011;9172;49.948;9.208;2023-04-03T10:52:24;5.13;;;1.40;;
18090;SDS011;9172;49.948;9.208;2023-04-03T10:54:58;4.20;;;1.70;;
18090;SDS011;9172;49.948;9.208;2023-04-03T10:57:32;3.87;;;1.33;;
18090;SDS011;9172;49.948;9.208;2023-04-03T11:00:02;2.40;;;1.47;;
18090;SDS011;9172;49.948;9.208;2023-04-03T11:02:36;1.33;;;1.10;;
18090;SDS011;9172;49.948;9.208;2023-04-03T11:05:13;3.87;;;1.33;;
18090;SDS011;9172;49.948;9.208;2023-04-03T11:07:45;0.90;;;0.90;;
18090;SDS011;9172;49.948;9.208;2023-04-03T11:10:18;1.73;;;1.50;;
18090;SDS011;9172;49.948;9.208;2023-04-03T11:12:48;4.23;;;1.43;;
18090;SDS011;9172;49.948;9.208;2023-04-03T11:15:20;2.80;;;1.50;;
18090;SDS011;9172;49.948;9.208;2023-04-03T11:17:50;1.93;;;1.30;;
18090;SDS011;9172;49.948;9.208;2023-04-03T11:20:23;2.10;;;1.20;;
18090;SDS011;9172;49.948;9.208;2023-04-03T11:22:57;3.53;;;1.23;;
18090;SDS011;9172;49.948;9.208;2023-04-03T11:25:28;1.27;;;1.03;;
18090;SDS011;9172;49.948;9.208;2023-04-03T11:27:59;2.50;;;1.40;;
18090;SDS011;9172;49.948;9.208;2023-04-03T11:30:32;4.93;;;1.33;;
18090;SDS011;9172;49.948;9.208;2023-04-03T11:33:17;2.43;;;1.10;;
18090;SDS011;9172;49.948;9.208;2023-04-03T11:35:53;1.77;;;1.10;;
18090;SDS011;9172;49.948;9.208;2023-04-03T11:38:26;3.00;;;1.27;;
18090;SDS011;9172;49.948;9.208;2023-04-03T11:40:57;2.33;;;1.30;;
18090;SDS011;9172;49.948;9.208;2023-04-03T11:43:27;2.83;;;1.60;;
18090;SDS011;9172;49.948;9.208;2023-04-03T11:45:58;5.33;;;1.60;;
18090;SDS011;9172;49.948;9.208;2023-04-03T11:51:39;2.70;;;1.53;;
18090;SDS011;9172;49.948;9.208;2023-04-03T11:54:35;3.47;;;1.53;;
18090;SDS011;9172;49.948;9.208;2023-04-03T11:57:23;6.37;;;2.23;;
18090;SDS011;9172;49.948;9.208;2023-04-03T12:12:56;3.93;;;1.30;;
18090;SDS011;9172;49.948;9.208;2023-04-03T12:22:04;1.97;;;1.13;;
18090;SDS011;9172;49.948;9.208;2023-04-03T12:24:24;2.80;;;1.30;;
18090;SDS011;9172;49.948;9.208;2023-04-03T12:27:03;3.83;;;1.20;;
18090;SDS011;9172;49.948;9.208;2023-04-03T12:29:38;3.77;;;1.73;;
18090;SDS011;9172;49.948;9.208;2023-04-03T12:32:12;5.83;;;1.43;;
18090;SDS011;9172;49.948;9.208;2023-04-03T12:34:45;3.03;;;1.10;;
18090;SDS011;9172;49.948;9.208;2023-04-03T12:37:23;3.03;;;1.53;;
18090;SDS011;9172;49.948;9.208;2023-04-03T12:40:01;8.37;;;1.50;;
18090;SDS011;9172;49.948;9.208;2023-04-03T12:42:41;3.23;;;1.87;;
18090;SDS011;9172;49.948;9.208;2023-04-03T12:45:17;2.90;;;1.30;;
18090;SDS011;9172;49.948;9.208;2023-04-03T12:47:49;4.20;;;1.70;;
18090;SDS011;9172;49.948;9.208;2023-04-03T12:50:23;1.10;;;1.00;;
18090;SDS011;9172;49.948;9.208;2023-04-03T12:52:57;2.70;;;1.00;;
18090;SDS011;9172;49.948;9.208;2023-04-03T12:55:28;4.03;;;1.20;;
18090;SDS011;9172;49.948;9.208;2023-04-03T12:57:58;3.47;;;1.17;;
18090;SDS011;9172;49.948;9.208;2023-04-03T13:00:41;1.90;;;1.10;;
18090;SDS011;9172;49.948;9.208;2023-04-03T13:03:19;1.43;;;1.07;;
18090;SDS011;9172;49.948;9.208;2023-04-03T13:05:50;4.50;;;1.30;;
18090;SDS011;9172;49.948;9.208;2023-04-03T13:08:19;2.13;;;1.00;;
18090;SDS011;9172;49.948;9.208;2023-04-03T13:10:51;2.27;;;0.97;;
18090;SDS011;9172;49.948;9.208;2023-04-03T13:13:22;2.47;;;0.87;;
18090;SDS011;9172;49.948;9.208;2023-04-03T13:15:52;2.53;;;1.30;;
18090;SDS011;9172;49.948;9.208;2023-04-03T13:18:22;3.40;;;1.07;;
18090;SDS011;9172;49.948;9.208;2023-04-03T13:20:52;2.13;;;1.10;;
18090;SDS011;9172;49.948;9.208;2023-04-03T13:23:24;2.40;;;1.30;;
18090;SDS011;9172;49.948;9.208;2023-04-03T13:25:53;1.30;;;1.00;;
18090;SDS011;9172;49.948;9.208;2023-04-03T13:28:24;1.67;;;1.07;;
18090;SDS011;9172;49.948;9.208;2023-04-03T13:30:56;2.60;;;1.17;;
18090;SDS011;9172;49.948;9.208;2023-04-03T13:33:32;2.77;;;1.10;;
18090;SDS011;9172;49.948;9.208;2023-04-03T13:36:05;1.20;;;0.97;;
18090;SDS011;9172;49.948;9.208;2023-04-03T13:38:38;2.93;;;0.90;;
18090;SDS011;9172;49.948;9.208;2023-04-03T13:41:21;1.10;;;0.90;;
18090;SDS011;9172;49.948;9.208;2023-04-03T13:43:52;2.30;;;1.00;;
18090;SDS011;9172;49.948;9.208;2023-04-03T13:46:25;1.77;;;1.00;;
18090;SDS011;9172;49.948;9.208;2023-04-03T13:48:55;2.87;;;1.20;;
18090;SDS011;9172;49.948;9.208;2023-04-03T13:51:26;1.83;;;1.03;;
18090;SDS011;9172;49.948;9.208;2023-04-03T13:53:56;1.83;;;1.27;;
18090;SDS011;9172;49.948;9.208;2023-04-03T13:56:29;2.37;;;1.10;;
18090;SDS011;9172;49.948;9.208;2023-04-03T13:59:20;1.50;;;1.00;;
18090;SDS011;9172;49.948;9.208;2023-04-03T14:01:52;1.30;;;0.90;;
18090;SDS011;9172;49.948;9.208;2023-04-03T14:04:23;2.30;;;1.00;;
18090;SDS011;9172;49.948;9.208;2023-04-03T14:06:54;2.13;;;0.90;;
18090;SDS011;9172;49.948;9.208;2023-04-03T14:09:25;3.43;;;1.17;;
18090;SDS011;9172;49.948;9.208;2023-04-03T14:11:55;2.07;;;1.13;;
18090;SDS011;9172;49.948;9.208;2023-04-03T14:14:27;3.07;;;1.10;;
18090;SDS011;9172;49.948;9.208;2023-04-03T14:16:58;3.70;;;1.10;;
18090;SDS011;9172;49.948;9.208;2023-04-03T14:19:30;2.47;;;1.10;;
18090;SDS011;9172;49.948;9.208;2023-04-03T14:22:00;3.77;;;1.13;;
18090;SDS011;9172;49.948;9.208;2023-04-03T14:24:34;4.80;;;1.40;;
18090;SDS011;9172;49.948;9.208;2023-04-03T14:27:05;1.50;;;1.10;;
18090;SDS011;9172;49.948;9.208;2023-04-03T14:29:38;3.10;;;1.00;;
18090;SDS011;9172;49.948;9.208;2023-04-03T14:32:06;4.87;;;1.63;;
18090;SDS011;9172;49.948;9.208;2023-04-03T14:34:38;2.97;;;1.60;;
18090;SDS011;9172;49.948;9.208;2023-04-03T14:37:09;3.53;;;1.17;;
18090;SDS011;9172;49.948;9.208;2023-04-03T14:39:39;2.40;;;1.10;;
18090;SDS011;9172;49.948;9.208;2023-04-03T14:42:12;3.20;;;1.20;;
18090;SDS011;9172;49.948;9.208;2023-04-03T14:44:42;2.57;;;1.33;;
18090;SDS011;9172;49.948;9.208;2023-04-03T14:47:11;2.87;;;1.47;;
18090;SDS011;9172;49.948;9.208;2023-04-03T14:49:42;1.87;;;1.03;;
18090;SDS011;9172;49.948;9.208;2023-04-03T14:52:18;6.30;;;1.20;;
18090;SDS011;9172;49.948;9.208;2023-04-03T14:54:47;2.23;;;1.33;;
18090;SDS011;9172;49.948;9.208;2023-04-03T14:57:16;7.07;;;1.70;;
18090;SDS011;9172;49.948;9.208;2023-04-03T14:59:46;2.07;;;1.10;;
18090;SDS011;9172;49.948;9.208;2023-04-03T15:02:22;2.27;;;1.00;;
18090;SDS011;9172;49.948;9.208;2023-04-03T15:04:56;2.30;;;1.30;;
18090;SDS011;9172;49.948;9.208;2023-04-03T15:07:26;3.60;;;1.40;;
18090;SDS011;9172;49.948;9.208;2023-04-03T15:09:58;1.83;;;1.23;;
18090;SDS011;9172;49.948;9.208;2023-04-03T15:12:28;3.97;;;1.30;;
18090;SDS011;9172;49.948;9.208;2023-04-03T15:14:56;5.13;;;1.37;;
18090;SDS011;9172;49.948;9.208;2023-04-03T15:17:25;1.70;;;1.27;;
18090;SDS011;9172;49.948;9.208;2023-04-03T15:19:54;2.77;;;1.20;;
18090;SDS011;9172;49.948;9.208;2023-04-03T15:22:23;3.07;;;1.73;;
18090;SDS011;9172;49.948;9.208;2023-04-03T15:24:52;2.13;;;1.13;;
18090;SDS011;9172;49.948;9.208;2023-04-03T15:27:21;3.03;;;1.00;;
18090;SDS011;9172;49.948;9.208;2023-04-03T15:29:50;2.93;;;1.40;;
18090;SDS011;9172;49.948;9.208;2023-04-03T15:32:19;2.20;;;1.07;;
18090;SDS011;9172;49.948;9.208;2023-04-03T15:34:48;2.47;;;1.03;;
18090;SDS011;9172;49.948;9.208;2023-04-03T15:37:18;2.53;;;1.20;;
18090;SDS011;9172;49.948;9.208;2023-04-03T15:39:47;1.77;;;1.00;;
18090;SDS011;9172;49.948;9.208;2023-04-03T15:42:17;2.17;;;1.20;;
18090;SDS011;9172;49.948;9.208;2023-04-03T15:44:45;3.17;;;1.00;;
18090;SDS011;9172;49.948;9.208;2023-04-03T15:47:14;1.20;;;0.77;;
18090;SDS011;9172;49.948;9.208;2023-04-03T15:49:42;1.13;;;0.90;;
18090;SDS011;9172;49.948;9.208;2023-04-03T15:52:12;2.33;;;1.10;;
18090;SDS011;9172;49.948;9.208;2023-04-03T15:54:41;0.93;;;0.80;;